Time;durP1;ratioP1;P1;durP2;ratioP2;P2;SDS_P1;SDS_P2;PMS_P1;PMS_P2;Temp;Humidity;BMP_temperature;BMP_pressure;BME280_temperature;BME280_humidity;BME280_pressure;Samples;Min_cycle;Max_cycle;Signal;HPM_P1;HPM_P2
2021/06/05 07:32:33;;;;;;;;;;;17.20;99.90;;;;;;6133653;23;19963;-83
2021/06/05 07:35:00;;;;;;;;;;;17.30;99.90;;;;;;6153339;23;19992;-84
2021/06/05 07:37:27;;;;;;;;;;;17.30;99.90;;;;;;6152995;23;20360;-83
2021/06/05 07:39:57;;;;;;;;;;;17.40;99.90;;;;;;6153004;23;20017;-81
2021/06/05 07:42:23;;;;;;;;;;;17.50;99.90;;;;;;6152545;23;20288;-85
2021/06/05 07:44:50;;;;;;;;;;;17.60;99.90;;;;;;6151817;23;19979;-83
2021/06/05 07:47:17;;;;;;;;;;;17.60;99.90;;;;;;6153948;23;20343;-84
2021/06/05 07:49:44;;;;;;;;;;;17.70;99.90;;;;;;6150349;23;20422;-84
2021/06/05 07:52:12;;;;;;;;;;;17.80;99.90;;;;;;6149836;23;19917;-83
2021/06/05 07:54:39;;;;;;;;;;;17.80;99.90;;;;;;6149889;23;20399;-84
2021/06/05 07:57:08;;;;;;;;;;;17.90;99.90;;;;;;6150284;23;19920;-84
2021/06/05 07:59:35;;;;;;;;;;;17.90;99.90;;;;;;6153354;23;19916;-84
2021/06/05 08:02:02;;;;;;;;;;;17.90;99.90;;;;;;6151866;23;19967;-84
2021/06/05 08:04:28;;;;;;;;;;;18.00;99.90;;;;;;6151319;23;20324;-84
2021/06/05 08:06:56;;;;;;;;;;;18.10;99.90;;;;;;6151525;23;19971;-84
2021/06/05 08:09:23;;;;;;;;;;;18.30;99.90;;;;;;6151007;23;19971;-85
2021/06/05 08:11:50;;;;;;;;;;;18.50;99.90;;;;;;6151733;23;19916;-85
2021/06/05 08:14:17;;;;;;;;;;;18.70;99.90;;;;;;6150983;23;20003;-86
2021/06/05 08:16:44;;;;;;;;;;;19.00;99.90;;;;;;6151313;23;19924;-84
2021/06/05 08:19:15;;;;;;;;;;;19.20;99.90;;;;;;6150708;23;19920;-85
2021/06/05 08:21:43;;;;;;;;;;;19.30;99.90;;;;;;6151335;23;19987;-83
2021/06/05 08:24:10;;;;;;;;;;;19.40;99.90;;;;;;6150366;23;19920;-83
2021/06/05 08:26:37;;;;;;;;;;;19.40;99.90;;;;;;6151161;23;19963;-82
2021/06/05 08:29:04;;;;;;;;;;;19.40;99.90;;;;;;6150968;23;19923;-83
2021/06/05 08:31:31;;;;;;;;;;;19.30;99.90;;;;;;6150953;23;19985;-83
2021/06/05 08:33:59;;;;;;;;;;;19.20;99.90;;;;;;6151499;23;19917;-85
2021/06/05 08:36:27;;;;;;;;;;;19.10;99.90;;;;;;6150709;23;19925;-83
2021/06/05 08:38:54;;;;;;;;;;;19.00;99.90;;;;;;6151833;23;19970;-82
2021/06/05 08:41:40;;;;;;;;;;;18.90;99.90;;;;;;6150458;23;19975;-84
2021/06/05 08:44:09;;;;;;;;;;;18.80;99.90;;;;;;6150269;23;20366;-82
2021/06/05 08:46:41;;;;;;;;;;;18.90;99.90;;;;;;6150531;23;19921;-84
2021/06/05 08:49:28;;;;;;;;;;;19.10;99.90;;;;;;6150651;23;19923;-82
2021/06/05 08:52:07;;;;;;;;;;;19.30;99.90;;;;;;6150948;23;19924;-84
2021/06/05 08:54:34;;;;;;;;;;;19.30;99.90;;;;;;6149950;23;19928;-83
2021/06/05 08:57:24;;;;;;;;;;;19.30;99.90;;;;;;6149209;23;19916;-83
2021/06/05 08:59:52;;;;;;;;;;;19.30;99.90;;;;;;6053020;23;20381;-82
2021/06/05 09:02:22;;;;;;;;;;;19.20;99.90;;;;;;6060739;23;19918;-83
2021/06/05 09:04:49;;;;;;;;;;;19.10;99.90;;;;;;6061160;23;19921;-83
2021/06/05 09:07:16;;;;;;;;;;;19.10;99.90;;;;;;6036817;23;20367;-84
2021/06/05 09:09:45;;;;;;;;;;;19.10;99.90;;;;;;6037424;23;20359;-82
2021/06/05 09:12:13;;;;;;;;;;;19.20;99.90;;;;;;6059709;23;19921;-83
2021/06/05 09:14:41;;;;;;;;;;;19.20;99.90;;;;;;6062199;23;19918;-84
2021/06/05 09:17:17;;;;;;;;;;;19.20;99.90;;;;;;6035251;23;19921;-83
2021/06/05 09:19:58;;;;;;;;;;;19.30;99.90;;;;;;6037255;23;20306;-83
2021/06/05 09:22:29;;;;;;;;;;;19.40;99.90;;;;;;6058880;23;20412;-84
2021/06/05 09:24:56;;;;;;;;;;;19.50;99.90;;;;;;6037368;23;19964;-86
2021/06/05 09:27:34;;;;;;;;;;;19.50;99.90;;;;;;6059776;23;19949;-83
2021/06/05 09:30:07;;;;;;;;;;;19.40;99.90;;;;;;6037406;23;20339;-84
2021/06/05 09:32:35;;;;;;;;;;;19.40;99.90;;;;;;6061353;23;19918;-82
2021/06/05 09:35:13;;;;;;;;;;;19.50;99.90;;;;;;6039961;23;19965;-82
2021/06/05 09:37:45;;;;;;;;;;;19.50;99.90;;;;;;6141271;23;19967;-82
2021/06/05 09:40:12;;;;;;;;;;;19.50;99.90;;;;;;6153437;23;20436;-80
2021/06/05 09:42:42;;;;;;;;;;;19.40;99.90;;;;;;6153166;23;20295;-84
2021/06/05 09:45:19;;;;;;;;;;;19.40;99.90;;;;;;6152745;23;19916;-88
2021/06/05 09:47:46;;;;;;;;;;;19.40;99.90;;;;;;6153958;23;20288;-89
2021/06/05 09:50:15;;;;;;;;;;;19.50;99.90;;;;;;6152756;23;20295;-86
2021/06/05 09:52:42;;;;;;;;;;;19.50;99.90;;;;;;6154155;23;19928;-84
2021/06/05 09:55:15;;;;;;;;;;;19.60;99.90;;;;;;6153136;23;19920;-83
2021/06/05 09:57:43;;;;;;;;;;;19.60;99.90;;;;;;6154110;23;19921;-84
2021/06/05 10:00:10;;;;;;;;;;;19.70;99.90;;;;;;6153232;23;19920;-83
2021/06/05 10:02:48;;;;;;;;;;;19.70;99.90;;;;;;6153379;23;19971;-83
2021/06/05 10:05:24;;;;;;;;;;;19.70;99.90;;;;;;6153453;23;19967;-83
2021/06/05 10:07:51;;;;;;;;;;;19.60;99.90;;;;;;6153864;23;19947;-85
2021/06/05 10:10:36;;;;;;;;;;;19.50;99.90;;;;;;6154561;23;20287;-85
2021/06/05 10:13:07;;;;;;;;;;;19.50;99.90;;;;;;6153875;23;20304;-83
2021/06/05 10:15:39;;;;;;;;;;;19.50;99.90;;;;;;6152290;23;19921;-83
2021/06/05 10:18:17;;;;;;;;;;;19.40;99.90;;;;;;6153038;23;19916;-83
2021/06/05 10:20:53;;;;;;;;;;;19.40;99.90;;;;;;6153802;23;19975;-83
2021/06/05 10:23:27;;;;;;;;;;;19.30;99.90;;;;;;6153046;23;20332;-84
2021/06/05 10:25:56;;;;;;;;;;;19.30;99.90;;;;;;6153794;23;19977;-85
2021/06/05 10:28:26;;;;;;;;;;;19.20;99.90;;;;;;6152887;23;19920;-85
2021/06/05 10:31:07;;;;;;;;;;;19.10;99.90;;;;;;6153239;23;19971;-84
2021/06/05 10:33:49;;;;;;;;;;;19.00;99.90;;;;;;6152504;23;20004;-83
2021/06/05 10:36:16;;;;;;;;;;;19.10;99.90;;;;;;6153859;23;19916;-82
2021/06/05 10:39:04;;;;;;;;;;;19.00;99.90;;;;;;6154096;23;19924;-83
2021/06/05 10:41:34;;;;;;;;;;;19.00;99.90;;;;;;6152399;23;19916;-82
2021/06/05 10:44:04;;;;;;;;;;;19.10;99.90;;;;;;6152917;23;19916;-82
2021/06/05 10:46:30;;;;;;;;;;;19.10;99.90;;;;;;6152645;23;19940;-83
2021/06/05 10:49:05;;;;;;;;;;;19.10;99.90;;;;;;6155388;23;19964;-82
2021/06/05 10:51:33;;;;;;;;;;;19.20;99.90;;;;;;6154014;23;20420;-81
2021/06/05 10:54:07;;;;;;;;;;;19.30;99.90;;;;;;6154749;23;20370;-81
2021/06/05 10:56:49;;;;;;;;;;;19.30;99.90;;;;;;6151979;23;19917;-80
2021/06/05 10:59:35;;;;;;;;;;;19.40;99.90;;;;;;6152877;23;20391;-82
2021/06/05 11:02:02;;;;;;;;;;;19.40;99.90;;;;;;6152807;23;19917;-81
2021/06/05 11:04:32;;;;;;;;;;;19.40;99.90;;;;;;6152463;23;19917;-82
2021/06/05 11:07:01;;;;;;;;;;;19.40;99.90;;;;;;6155418;23;19916;-79
2021/06/05 11:09:29;;;;;;;;;;;19.50;99.90;;;;;;6155443;23;19983;-80
2021/06/05 11:12:19;;;;;;;;;;;19.40;99.90;;;;;;6155108;23;19923;-81
2021/06/05 11:14:47;;;;;;;;;;;19.40;99.90;;;;;;6156131;23;20342;-81
2021/06/05 11:17:32;;;;;;;;;;;19.40;99.90;;;;;;6154645;23;20233;-82
2021/06/05 11:20:04;;;;;;;;;;;19.50;99.90;;;;;;6153657;23;19917;-81
2021/06/05 11:22:49;;;;;;;;;;;19.60;99.90;;;;;;6155868;23;19920;-79
2021/06/05 11:25:16;;;;;;;;;;;19.60;99.90;;;;;;6154389;23;20252;-80
2021/06/05 11:27:47;;;;;;;;;;;19.50;99.90;;;;;;6154581;23;19917;-80
2021/06/05 11:30:20;;;;;;;;;;;19.50;99.90;;;;;;6156638;23;19928;-80
2021/06/05 11:33:06;;;;;;;;;;;19.40;99.90;;;;;;6156242;23;19920;-82
2021/06/05 11:35:42;;;;;;;;;;;19.40;99.90;;;;;;6156891;23;19975;-79
2021/06/05 11:38:18;;;;;;;;;;;19.30;99.90;;;;;;6154790;23;20277;-80
2021/06/05 11:40:51;;;;;;;;;;;19.30;99.90;;;;;;6155068;23;19920;-79
2021/06/05 11:43:32;;;;;;;;;;;19.30;99.90;;;;;;6154921;23;19924;-80
2021/06/05 11:46:11;;;;;;;;;;;19.40;99.90;;;;;;6130997;23;19917;-80
2021/06/05 11:48:38;;;;;;;;;;;19.50;99.90;;;;;;6153972;23;19916;-81
2021/06/05 11:51:34;;;;;;;;;;;19.70;99.90;;;;;;6154445;23;19971;-81
2021/06/05 11:54:01;;;;;;;;;;;19.80;99.90;;;;;;6149506;23;19917;-81
2021/06/05 11:56:33;;;;;;;;;;;20.00;99.90;;;;;;6154957;23;19917;-82
2021/06/05 11:59:10;;;;;;;;;;;20.10;99.90;;;;;;6154867;23;19920;-80
2021/06/05 12:01:37;;;;;;;;;;;20.20;99.90;;;;;;6156287;23;19940;-81
2021/06/05 12:04:13;;;;;;;;;;;20.30;99.90;;;;;;6156290;23;20380;-82
2021/06/05 12:06:42;;;;;;;;;;;20.40;99.90;;;;;;6156242;23;19916;-80
2021/06/05 12:09:15;;;;;;;;;;;20.50;99.90;;;;;;6154281;23;19916;-82
2021/06/05 12:11:44;;;;;;;;;;;20.60;99.90;;;;;;6156438;23;19917;-80
2021/06/05 12:14:17;;;;;;;;;;;20.60;99.90;;;;;;6154278;23;19948;-80
2021/06/05 12:16:49;;;;;;;;;;;20.70;99.90;;;;;;6153655;23;19924;-79
2021/06/05 12:19:16;;;;;;;;;;;20.80;99.90;;;;;;6154158;23;19916;-83
2021/06/05 12:21:44;;;;;;;;;;;20.80;99.90;;;;;;6153826;23;19916;-79
2021/06/05 12:24:29;;;;;;;;;;;20.70;99.90;;;;;;6155551;23;19968;-80
2021/06/05 12:26:58;;;;;;;;;;;20.60;99.90;;;;;;6154558;23;20005;-80
2021/06/05 12:29:32;;;;;;;;;;;20.50;99.90;;;;;;6152282;23;20248;-81
2021/06/05 12:32:11;;;;;;;;;;;20.50;99.90;;;;;;6152495;23;19971;-81
2021/06/05 12:34:38;;;;;;;;;;;20.40;99.90;;;;;;6154015;23;20333;-80
2021/06/05 12:37:16;;;;;;;;;;;20.30;99.90;;;;;;6152545;23;19963;-82
2021/06/05 12:39:53;;;;;;;;;;;20.20;99.90;;;;;;6153566;23;19920;-80
2021/06/05 12:42:26;;;;;;;;;;;20.10;99.90;;;;;;6152501;23;19920;-80
2021/06/05 12:44:57;;;;;;;;;;;20.00;99.90;;;;;;6154721;23;19916;-81
2021/06/05 12:47:28;;;;;;;;;;;20.00;99.90;;;;;;6154138;23;20383;-82
2021/06/05 12:49:55;;;;;;;;;;;19.90;99.90;;;;;;6154081;23;19924;-82
2021/06/05 12:52:30;;;;;;;;;;;19.90;99.90;;;;;;6152800;23;19971;-82
2021/06/05 12:55:17;;;;;;;;;;;20.00;99.90;;;;;;6153270;23;19917;-82
2021/06/05 12:57:47;;;;;;;;;;;20.00;99.90;;;;;;6141854;23;19923;-83
2021/06/05 13:00:34;;;;;;;;;;;20.00;99.90;;;;;;6152536;23;19917;-82
2021/06/05 13:03:21;;;;;;;;;;;20.10;99.90;;;;;;6149226;23;19920;-83
2021/06/05 13:06:06;;;;;;;;;;;20.30;99.90;;;;;;6152419;23;19944;-79
2021/06/05 13:08:37;;;;;;;;;;;20.40;99.90;;;;;;6154480;23;19916;-81
2021/06/05 13:11:07;;;;;;;;;;;20.40;99.90;;;;;;6153026;23;19917;-81
2021/06/05 13:14:04;;;;;;;;;;;20.40;99.90;;;;;;6155038;23;20395;-81
2021/06/05 13:16:30;;;;;;;;;;;20.40;99.90;;;;;;6154798;23;19975;-81
2021/06/05 13:19:08;;;;;;;;;;;20.40;99.90;;;;;;6154679;23;19940;-82
2021/06/05 13:21:35;;;;;;;;;;;20.40;99.90;;;;;;6153149;23;20292;-81
2021/06/05 13:24:22;;;;;;;;;;;20.30;99.90;;;;;;6154276;23;19924;-82
2021/06/05 13:26:56;;;;;;;;;;;20.20;99.90;;;;;;6154584;23;20284;-80
2021/06/05 13:29:22;;;;;;;;;;;20.10;99.90;;;;;;6151640;23;19917;-84
2021/06/05 13:31:51;;;;;;;;;;;20.10;99.90;;;;;;6153800;23;20292;-81
2021/06/05 13:34:21;;;;;;;;;;;20.10;99.90;;;;;;6153575;23;19924;-81
2021/06/05 13:36:52;;;;;;;;;;;20.00;99.90;;;;;;6153717;23;19920;-81
2021/06/05 13:39:20;;;;;;;;;;;20.10;99.90;;;;;;6154562;23;19963;-82
2021/06/05 13:41:48;;;;;;;;;;;20.10;99.90;;;;;;6153937;23;19952;-82
2021/06/05 13:44:15;;;;;;;;;;;20.10;99.90;;;;;;6153495;23;19983;-80
2021/06/05 13:46:42;;;;;;;;;;;20.10;99.90;;;;;;6153867;23;20328;-81
2021/06/05 13:49:09;;;;;;;;;;;20.20;99.90;;;;;;6152987;23;19932;-82
2021/06/05 13:51:36;;;;;;;;;;;20.20;99.90;;;;;;6153093;23;19971;-84
2021/06/05 13:54:03;;;;;;;;;;;20.30;99.90;;;;;;6154445;23;19917;-82
2021/06/05 13:56:31;;;;;;;;;;;20.30;99.90;;;;;;6151179;23;20391;-83
2021/06/05 13:58:58;;;;;;;;;;;20.30;99.90;;;;;;6155040;23;20344;-82
2021/06/05 14:01:26;;;;;;;;;;;20.30;99.90;;;;;;6154474;23;20268;-82
2021/06/05 14:03:53;;;;;;;;;;;20.40;99.90;;;;;;6152852;23;19922;-83
2021/06/05 14:06:20;;;;;;;;;;;20.50;99.90;;;;;;6151886;23;19995;-82
2021/06/05 14:08:47;;;;;;;;;;;20.70;99.90;;;;;;6152978;23;19920;-82
2021/06/05 14:11:17;;;;;;;;;;;20.70;99.90;;;;;;6151263;23;19916;-82
2021/06/05 14:13:45;;;;;;;;;;;20.70;99.90;;;;;;6151009;23;19963;-81
2021/06/05 14:16:11;;;;;;;;;;;20.90;99.90;;;;;;6149850;23;20383;-82
2021/06/05 14:18:39;;;;;;;;;;;21.00;99.90;;;;;;6152445;23;19916;-82
2021/06/05 14:21:05;;;;;;;;;;;21.20;99.90;;;;;;6149345;23;20233;-84
2021/06/05 14:23:32;;;;;;;;;;;21.30;99.90;;;;;;6150631;23;19917;-81
2021/06/05 14:26:00;;;;;;;;;;;21.30;99.90;;;;;;6150786;23;19917;-83
2021/06/05 14:28:29;;;;;;;;;;;21.40;99.90;;;;;;6148303;23;20239;-82
2021/06/05 14:30:57;;;;;;;;;;;21.70;99.90;;;;;;6150148;23;19921;-84
2021/06/05 14:33:25;;;;;;;;;;;21.80;99.70;;;;;;6152316;23;19991;-83
2021/06/05 14:35:53;;;;;;;;;;;21.90;99.20;;;;;;6153218;23;19916;-83
2021/06/05 14:38:20;;;;;;;;;;;21.80;98.30;;;;;;6154801;23;20280;-83
2021/06/05 14:40:47;;;;;;;;;;;21.60;98.50;;;;;;6152974;23;19921;-84
2021/06/05 14:43:15;;;;;;;;;;;21.60;99.30;;;;;;6153799;23;20383;-83
2021/06/05 14:45:44;;;;;;;;;;;21.70;99.30;;;;;;6154461;23;20296;-83
2021/06/05 14:48:11;;;;;;;;;;;21.80;99.00;;;;;;6151408;23;19916;-83
2021/06/05 14:50:39;;;;;;;;;;;21.70;99.00;;;;;;6152531;23;19916;-84
2021/06/05 14:53:06;;;;;;;;;;;21.70;99.10;;;;;;6150723;23;19921;-83
2021/06/05 14:55:36;;;;;;;;;;;21.70;99.50;;;;;;6153027;23;19921;-83
2021/06/05 14:58:03;;;;;;;;;;;21.80;99.00;;;;;;6152882;23;20348;-83
2021/06/05 15:00:30;;;;;;;;;;;21.70;99.30;;;;;;6154135;23;19916;-83
2021/06/05 15:02:57;;;;;;;;;;;21.70;99.40;;;;;;6152907;23;20359;-83
2021/06/05 15:05:26;;;;;;;;;;;21.70;98.80;;;;;;6152561;23;20260;-85
2021/06/05 15:07:53;;;;;;;;;;;21.70;99.00;;;;;;6151532;23;19971;-84
2021/06/05 15:10:21;;;;;;;;;;;21.70;98.90;;;;;;6153007;23;19917;-83
2021/06/05 15:12:48;;;;;;;;;;;21.60;99.30;;;;;;6151981;23;19917;-83
2021/06/05 15:15:18;;;;;;;;;;;21.60;99.40;;;;;;6152220;23;19916;-83
2021/06/05 15:17:45;;;;;;;;;;;21.60;98.90;;;;;;6153392;23;19916;-82
2021/06/05 15:20:14;;;;;;;;;;;21.60;99.00;;;;;;6147917;23;20337;-82
2021/06/05 15:22:40;;;;;;;;;;;21.70;98.90;;;;;;6152405;23;20340;-82
2021/06/05 15:25:09;;;;;;;;;;;21.70;98.20;;;;;;6151098;23;19916;-81
2021/06/05 15:27:36;;;;;;;;;;;21.50;98.70;;;;;;6150925;23;20332;-81
2021/06/05 15:30:07;;;;;;;;;;;21.50;99.00;;;;;;6150924;23;19971;-84
2021/06/05 15:32:34;;;;;;;;;;;21.50;98.80;;;;;;6152125;23;20383;-83
2021/06/05 15:35:01;;;;;;;;;;;21.50;98.60;;;;;;6151856;23;19916;-82
2021/06/05 15:37:28;;;;;;;;;;;21.50;98.60;;;;;;6150185;23;19988;-83
2021/06/05 15:40:05;;;;;;;;;;;21.20;98.80;;;;;;6153723;23;19923;-83
2021/06/05 15:42:32;;;;;;;;;;;21.20;98.90;;;;;;6152229;23;19917;-84
2021/06/05 15:44:59;;;;;;;;;;;21.00;99.40;;;;;;6153797;23;19923;-82
2021/06/05 15:47:25;;;;;;;;;;;21.00;99.30;;;;;;6151409;23;19967;-84
2021/06/05 15:49:52;;;;;;;;;;;20.90;99.70;;;;;;6153280;23;19917;-82
2021/06/05 15:52:23;;;;;;;;;;;20.80;99.70;;;;;;6154049;23;20349;-83
2021/06/05 15:54:50;;;;;;;;;;;20.90;99.90;;;;;;6152962;23;19916;-86
2021/06/05 15:57:17;;;;;;;;;;;20.80;99.60;;;;;;6153052;23;19971;-84
2021/06/05 15:59:44;;;;;;;;;;;20.80;99.70;;;;;;6153751;23;19920;-83
2021/06/05 16:02:11;;;;;;;;;;;20.70;99.60;;;;;;6152364;23;19921;-81
2021/06/05 16:04:40;;;;;;;;;;;20.50;99.60;;;;;;6153441;23;20296;-83
2021/06/05 16:07:07;;;;;;;;;;;20.40;99.90;;;;;;6154584;23;19971;-83
2021/06/05 16:09:34;;;;;;;;;;;20.60;99.90;;;;;;6152881;23;19951;-81
2021/06/05 16:12:01;;;;;;;;;;;20.70;99.90;;;;;;6154837;23;20230;-82
2021/06/05 16:14:27;;;;;;;;;;;20.70;99.90;;;;;;6153164;23;19937;-83
2021/06/05 16:16:59;;;;;;;;;;;20.60;99.90;;;;;;6152106;23;19917;-82
2021/06/05 16:19:27;;;;;;;;;;;20.40;99.90;;;;;;6151066;23;20292;-83
2021/06/05 16:21:56;;;;;;;;;;;20.20;99.90;;;;;;6150224;23;19924;-82
2021/06/05 16:24:25;;;;;;;;;;;20.10;99.90;;;;;;6153011;23;19920;-82
2021/06/05 16:26:53;;;;;;;;;;;20.00;99.90;;;;;;6152644;23;20281;-81
2021/06/05 16:29:20;;;;;;;;;;;20.00;99.90;;;;;;6151329;23;19981;-82
2021/06/05 16:31:47;;;;;;;;;;;19.90;99.90;;;;;;6151281;23;19975;-83
2021/06/05 16:34:16;;;;;;;;;;;19.90;99.90;;;;;;6149445;23;20260;-82
2021/06/05 16:36:44;;;;;;;;;;;19.80;99.90;;;;;;6152258;23;19920;-82
2021/06/05 16:39:10;;;;;;;;;;;19.80;99.90;;;;;;6152334;23;19916;-83
2021/06/05 16:41:37;;;;;;;;;;;19.80;99.90;;;;;;6151557;23;19924;-82
2021/06/05 16:44:04;;;;;;;;;;;19.80;99.90;;;;;;6150613;23;19923;-82
2021/06/05 16:46:32;;;;;;;;;;;19.60;99.90;;;;;;6150782;23;19967;-82
2021/06/05 16:48:59;;;;;;;;;;;19.50;99.90;;;;;;6149284;23;19944;-81
2021/06/05 16:51:26;;;;;;;;;;;19.50;99.90;;;;;;6150244;23;19920;-81
2021/06/05 16:53:53;;;;;;;;;;;19.40;99.90;;;;;;6145303;23;20263;-82
2021/06/05 16:56:22;;;;;;;;;;;19.30;99.90;;;;;;6145021;23;19921;-82
2021/06/05 16:58:50;;;;;;;;;;;19.30;99.90;;;;;;6143765;23;19916;-81
2021/06/05 17:01:19;;;;;;;;;;;19.30;99.90;;;;;;6143603;23;19920;-82
2021/06/05 17:03:46;;;;;;;;;;;19.20;99.90;;;;;;6144087;23;19940;-80
2021/06/05 17:06:13;;;;;;;;;;;19.20;99.90;;;;;;6144971;23;19921;-79
2021/06/05 17:09:01;;;;;;;;;;;19.20;99.90;;;;;;6147772;23;19923;-81
2021/06/05 17:11:28;;;;;;;;;;;19.20;99.90;;;;;;6150123;23;20391;-81
2021/06/05 17:13:54;;;;;;;;;;;19.00;99.90;;;;;;6150417;23;20390;-79
2021/06/05 17:16:22;;;;;;;;;;;18.90;99.90;;;;;;6150196;23;19967;-81
2021/06/05 17:18:49;;;;;;;;;;;18.90;99.90;;;;;;6139563;23;19924;-79
2021/06/05 17:21:16;;;;;;;;;;;18.70;99.90;;;;;;6149382;23;19979;-79
2021/06/05 17:23:44;;;;;;;;;;;18.50;99.90;;;;;;6147235;23;20295;-81
2021/06/05 17:26:14;;;;;;;;;;;18.40;99.90;;;;;;6147577;23;19971;-80
2021/06/05 17:28:41;;;;;;;;;;;18.30;99.90;;;;;;6151133;23;19917;-80
2021/06/05 17:31:09;;;;;;;;;;;18.30;99.90;;;;;;6147556;23;19917;-82
2021/06/05 17:33:36;;;;;;;;;;;18.20;99.90;;;;;;6143743;23;19948;-83
2021/06/05 17:36:07;;;;;;;;;;;18.20;99.90;;;;;;6148078;23;19920;-81
2021/06/05 17:38:34;;;;;;;;;;;18.10;99.90;;;;;;6147805;23;19923;-83
2021/06/05 17:41:03;;;;;;;;;;;18.10;99.90;;;;;;6145473;23;20336;-83
2021/06/05 17:43:32;;;;;;;;;;;18.10;99.90;;;;;;6149070;23;19969;-82
2021/06/05 17:45:59;;;;;;;;;;;18.10;99.90;;;;;;6147128;23;19971;-86
2021/06/05 17:48:28;;;;;;;;;;;18.00;99.90;;;;;;6146920;23;20016;-82
2021/06/05 17:50:55;;;;;;;;;;;17.90;99.90;;;;;;6149051;23;19916;-82
2021/06/05 17:53:22;;;;;;;;;;;17.80;99.90;;;;;;6147785;23;19921;-84
2021/06/05 17:55:49;;;;;;;;;;;17.80;99.90;;;;;;6147932;23;20383;-83
2021/06/05 17:58:17;;;;;;;;;;;17.90;99.90;;;;;;6146901;23;19940;-81
2021/06/05 18:00:47;;;;;;;;;;;17.90;99.90;;;;;;6146496;23;19921;-81
2021/06/05 18:03:19;;;;;;;;;;;17.90;99.90;;;;;;6145364;23;19920;-84
2021/06/05 18:05:49;;;;;;;;;;;17.90;99.90;;;;;;6146221;23;19920;-81
2021/06/05 18:08:17;;;;;;;;;;;17.80;99.90;;;;;;6150092;23;19932;-83
2021/06/05 18:10:44;;;;;;;;;;;17.80;99.90;;;;;;6150472;23;20234;-81
2021/06/05 18:13:18;;;;;;;;;;;17.80;99.90;;;;;;6148371;23;20357;-81
2021/06/05 18:15:45;;;;;;;;;;;17.70;99.90;;;;;;6149556;23;19916;-82
2021/06/05 18:18:13;;;;;;;;;;;17.60;99.90;;;;;;6148857;23;19923;-81
2021/06/05 18:20:40;;;;;;;;;;;17.60;99.90;;;;;;6149237;23;19920;-80
2021/06/05 18:23:07;;;;;;;;;;;17.50;99.90;;;;;;6149849;23;20312;-84
2021/06/05 18:25:35;;;;;;;;;;;17.50;99.90;;;;;;6148057;23;19917;-82
2021/06/05 18:28:04;;;;;;;;;;;17.30;99.90;;;;;;6149769;23;19924;-81
2021/06/05 18:30:33;;;;;;;;;;;17.30;99.90;;;;;;6149603;23;19920;-81
2021/06/05 18:33:00;;;;;;;;;;;17.30;99.90;;;;;;6147862;23;19916;-82
2021/06/05 18:35:28;;;;;;;;;;;17.30;99.90;;;;;;6149751;23;19952;-86
2021/06/05 18:37:55;;;;;;;;;;;17.30;99.90;;;;;;6151293;23;19920;-81
2021/06/05 18:40:24;;;;;;;;;;;17.20;99.90;;;;;;6150549;23;19948;-82
2021/06/05 18:42:51;;;;;;;;;;;17.10;99.90;;;;;;6148966;23;19917;-82
2021/06/05 18:45:21;;;;;;;;;;;17.10;99.90;;;;;;6150124;23;19920;-81
2021/06/05 18:47:48;;;;;;;;;;;17.10;99.90;;;;;;6152519;23;20310;-81
2021/06/05 18:50:19;;;;;;;;;;;17.10;99.90;;;;;;6152060;23;19917;-82
2021/06/05 18:52:46;;;;;;;;;;;17.20;99.90;;;;;;6152650;23;19916;-82
2021/06/05 18:55:16;;;;;;;;;;;17.10;99.90;;;;;;6152365;23;19916;-82
2021/06/05 18:57:43;;;;;;;;;;;17.20;99.90;;;;;;6154645;23;19967;-78
2021/06/05 19:00:11;;;;;;;;;;;17.20;99.90;;;;;;6153338;23;19924;-81
2021/06/05 19:02:42;;;;;;;;;;;17.20;99.90;;;;;;6152691;23;19923;-82
2021/06/05 19:05:09;;;;;;;;;;;17.10;99.90;;;;;;6152158;23;19920;-84
2021/06/05 19:07:36;;;;;;;;;;;17.10;99.90;;;;;;6154053;23;19916;-82
2021/06/05 19:10:13;;;;;;;;;;;17.20;99.90;;;;;;6153397;23;19916;-82
2021/06/05 19:12:40;;;;;;;;;;;17.20;99.90;;;;;;6152347;23;19916;-81
2021/06/05 19:15:07;;;;;;;;;;;17.20;99.90;;;;;;6151455;23;19916;-82
2021/06/05 19:17:36;;;;;;;;;;;17.20;99.90;;;;;;6152669;23;19916;-82
2021/06/05 19:20:05;;;;;;;;;;;17.20;99.90;;;;;;6152587;23;19920;-81
2021/06/05 19:22:32;;;;;;;;;;;17.20;99.90;;;;;;6151011;23;20332;-83
2021/06/05 19:25:03;;;;;;;;;;;17.20;99.90;;;;;;6149661;23;20307;-82
2021/06/05 19:27:30;;;;;;;;;;;17.30;99.90;;;;;;6150792;23;19920;-83
2021/06/05 19:30:05;;;;;;;;;;;17.20;99.90;;;;;;6150827;23;19916;-82
2021/06/05 19:32:40;;;;;;;;;;;17.30;99.90;;;;;;6144903;23;20295;-82
2021/06/05 19:35:08;;;;;;;;;;;17.30;99.90;;;;;;6152276;23;20293;-81
2021/06/05 19:37:35;;;;;;;;;;;17.20;99.90;;;;;;6152996;23;20241;-83
2021/06/05 19:40:04;;;;;;;;;;;17.30;99.90;;;;;;6151961;23;19928;-82
2021/06/05 19:42:32;;;;;;;;;;;17.20;99.90;;;;;;6153118;23;19979;-81
2021/06/05 19:44:59;;;;;;;;;;;17.20;99.90;;;;;;6151723;23;19917;-81
2021/06/05 19:47:26;;;;;;;;;;;17.10;99.90;;;;;;6150518;23;19920;-80
2021/06/05 19:49:53;;;;;;;;;;;17.10;99.90;;;;;;6152712;23;19916;-80
2021/06/05 19:52:20;;;;;;;;;;;17.00;99.90;;;;;;6153690;23;19917;-81
2021/06/05 19:54:46;;;;;;;;;;;17.00;99.90;;;;;;6152172;23;19924;-81
2021/06/05 19:57:18;;;;;;;;;;;16.90;99.90;;;;;;6151726;23;19939;-81
2021/06/05 19:59:45;;;;;;;;;;;16.90;99.90;;;;;;6153894;23;19920;-80
2021/06/05 20:02:12;;;;;;;;;;;16.90;99.90;;;;;;6150394;23;19920;-80
2021/06/05 20:04:39;;;;;;;;;;;16.80;99.90;;;;;;6149821;23;19920;-84
2021/06/05 20:07:07;;;;;;;;;;;16.70;99.90;;;;;;6150527;23;19920;-80
2021/06/05 20:09:35;;;;;;;;;;;16.70;99.90;;;;;;6151654;23;20408;-82
2021/06/05 20:12:02;;;;;;;;;;;16.60;99.90;;;;;;6150556;23;19916;-80
2021/06/05 20:14:29;;;;;;;;;;;16.60;99.90;;;;;;6150695;23;19917;-80
2021/06/05 20:16:56;;;;;;;;;;;16.60;99.90;;;;;;6151187;23;19920;-80
2021/06/05 20:19:24;;;;;;;;;;;16.50;99.90;;;;;;6148859;23;19924;-79
2021/06/05 20:21:56;;;;;;;;;;;16.50;99.90;;;;;;6148809;23;20209;-80
2021/06/05 20:24:26;;;;;;;;;;;16.40;99.90;;;;;;6146961;23;19928;-81
2021/06/05 20:26:53;;;;;;;;;;;16.30;99.90;;;;;;6150077;23;19952;-81
2021/06/05 20:29:20;;;;;;;;;;;16.30;99.90;;;;;;6152372;23;19920;-79
2021/06/05 20:31:47;;;;;;;;;;;16.20;99.90;;;;;;6148285;23;19967;-86
2021/06/05 20:34:14;;;;;;;;;;;16.10;99.90;;;;;;6149286;23;19988;-81
2021/06/05 20:36:41;;;;;;;;;;;16.10;99.90;;;;;;6151972;23;19967;-80
2021/06/05 20:39:10;;;;;;;;;;;16.10;99.90;;;;;;6150637;23;19920;-80
2021/06/05 20:41:38;;;;;;;;;;;16.10;99.90;;;;;;6151296;23;19920;-80
2021/06/05 20:44:06;;;;;;;;;;;16.10;99.90;;;;;;6152265;23;19917;-90
2021/06/05 20:46:35;;;;;;;;;;;16.00;99.90;;;;;;6151120;23;19924;-80
2021/06/05 20:49:06;;;;;;;;;;;16.00;99.90;;;;;;6152665;23;19923;-80
2021/06/05 20:51:35;;;;;;;;;;;15.90;99.90;;;;;;6150139;23;19916;-82
2021/06/05 20:54:03;;;;;;;;;;;15.90;99.90;;;;;;6151087;23;20241;-83
2021/06/05 20:56:30;;;;;;;;;;;15.90;99.90;;;;;;6151628;23;19920;-81
2021/06/05 20:58:57;;;;;;;;;;;15.90;99.90;;;;;;6152658;23;19916;-80
2021/06/05 21:01:25;;;;;;;;;;;15.90;99.90;;;;;;6146120;23;19924;-81
2021/06/05 21:03:53;;;;;;;;;;;15.90;99.90;;;;;;6147609;23;19916;-82
2021/06/05 21:06:21;;;;;;;;;;;15.80;99.90;;;;;;6144963;23;20307;-84
2021/06/05 21:08:48;;;;;;;;;;;15.80;99.90;;;;;;6148229;23;19967;-84
2021/06/05 21:11:15;;;;;;;;;;;15.70;99.90;;;;;;6150520;23;19940;-81
2021/06/05 21:13:43;;;;;;;;;;;15.70;99.90;;;;;;6151593;23;19920;-81
2021/06/05 21:16:12;;;;;;;;;;;15.80;99.90;;;;;;6150952;23;19920;-80
2021/06/05 21:18:41;;;;;;;;;;;15.70;99.90;;;;;;6150787;23;19916;-87
2021/06/05 21:21:08;;;;;;;;;;;15.60;99.90;;;;;;6150450;23;19927;-83
2021/06/05 21:23:36;;;;;;;;;;;15.60;99.90;;;;;;6151378;23;19963;-88
2021/06/05 21:26:02;;;;;;;;;;;15.50;99.90;;;;;;6150325;23;19921;-81
2021/06/05 21:28:29;;;;;;;;;;;15.40;99.90;;;;;;6149990;23;19920;-81
2021/06/05 21:30:56;;;;;;;;;;;15.40;99.90;;;;;;6150632;23;20292;-81
2021/06/05 21:33:28;;;;;;;;;;;15.30;99.90;;;;;;6150264;23;19917;-81
2021/06/05 21:35:55;;;;;;;;;;;15.20;99.90;;;;;;6148603;23;19925;-83
2021/06/05 21:38:23;;;;;;;;;;;15.20;99.90;;;;;;6145552;23;20348;-81
2021/06/05 21:40:50;;;;;;;;;;;15.10;99.90;;;;;;6147098;23;19916;-82
2021/06/05 21:43:19;;;;;;;;;;;15.10;99.90;;;;;;6151860;23;20399;-81
2021/06/05 21:45:46;;;;;;;;;;;15.00;99.90;;;;;;6126541;23;20605;-80
2021/06/05 21:48:17;;;;;;;;;;;14.90;99.90;;;;;;6150547;23;19943;-81
2021/06/05 21:50:47;;;;;;;;;;;14.90;99.90;;;;;;6150965;23;19971;-83
2021/06/05 21:53:16;;;;;;;;;;;14.80;99.90;;;;;;6150476;23;20633;-80
2021/06/05 21:55:45;;;;;;;;;;;14.80;99.90;;;;;;6149773;23;19924;-84
2021/06/05 21:58:13;;;;;;;;;;;14.70;99.90;;;;;;6150087;23;19996;-81
2021/06/05 22:01:00;;;;;;;;;;;14.70;99.90;;;;;;6149269;23;19971;-81
2021/06/05 22:03:29;;;;;;;;;;;14.70;99.90;;;;;;6149548;23;19917;-84